createdAt,value
2022-10-05T00:02:01.251Z,82.55
2022-10-05T00:04:45.554Z,83.52
2022-10-05T00:07:31.457Z,83.16
2022-10-05T00:10:17.800Z,83.11
2022-10-05T00:13:00.760Z,84.11
2022-10-05T00:15:45.629Z,83.15
2022-10-05T00:18:28.725Z,84.19
2022-10-05T00:21:20.659Z,83.28
2022-10-05T00:24:03.628Z,83.66
2022-10-05T00:26:46.833Z,83.50
2022-10-05T00:29:30.042Z,82.86
2022-10-05T00:32:14.686Z,81.83
2022-10-05T00:34:58.742Z,82.51
2022-10-05T00:37:42.573Z,82.40
2022-10-05T00:40:41.796Z,82.70
2022-10-05T00:43:42.853Z,82.15
2022-10-05T00:46:33.867Z,82.99
2022-10-05T00:49:30.795Z,82.41
2022-10-05T00:52:33.626Z,82.03
2022-10-05T00:55:26.361Z,82.20
2022-10-05T00:58:21.128Z,82.00
2022-10-05T01:01:10.748Z,83.12
2022-10-05T01:04:04.990Z,83.07
2022-10-05T01:07:00.750Z,83.35
2022-10-05T01:09:50.384Z,83.14
2022-10-05T01:12:42.398Z,83.52
2022-10-05T01:15:32.637Z,84.06
2022-10-05T01:18:22.493Z,82.83
2022-10-05T01:21:11.796Z,83.06
2022-10-05T01:24:37.595Z,82.71
2022-10-05T01:27:38.062Z,83.38
2022-10-05T01:30:23.110Z,82.87
2022-10-05T01:33:17.727Z,82.53
2022-10-05T01:36:08.576Z,83.44
2022-10-05T01:38:59.094Z,83.39
2022-10-05T01:41:50.477Z,83.75
2022-10-05T01:44:42.229Z,83.86
2022-10-05T01:47:38.224Z,83.57
2022-10-05T01:50:33.068Z,83.64
2022-10-05T01:53:29.215Z,83.99
2022-10-05T01:56:23.136Z,83.78
2022-10-05T01:59:18.911Z,84.13
2022-10-05T02:02:07.680Z,84.19
2022-10-05T02:05:01.829Z,84.20
2022-10-05T02:07:50.500Z,84.51
2022-10-05T02:10:38.402Z,84.93
2022-10-05T02:13:26.624Z,85.34
2022-10-05T02:16:16.811Z,85.66
2022-10-05T02:19:04.770Z,84.32
2022-10-05T02:21:53.221Z,84.60
2022-10-05T02:24:40.798Z,84.27
2022-10-05T02:27:28.610Z,84.46
2022-10-05T02:30:16.386Z,85.70
2022-10-05T02:33:03.887Z,85.34
2022-10-05T02:35:48.403Z,85.78
2022-10-05T02:38:41.814Z,86.60
2022-10-05T02:41:37.594Z,86.65
2022-10-05T02:44:29.781Z,86.51
2022-10-05T02:47:19.650Z,86.81
2022-10-05T02:50:13.438Z,86.00
2022-10-05T02:53:09.354Z,85.81
2022-10-05T02:56:05.084Z,86.15
2022-10-05T02:58:58.574Z,86.00
2022-10-05T03:01:48.559Z,86.42
2022-10-05T03:04:40.653Z,85.92
2022-10-05T03:07:28.816Z,87.15
2022-10-05T03:10:21.124Z,87.24
2022-10-05T03:13:10.495Z,88.08
2022-10-05T03:16:09.418Z,88.09
2022-10-05T03:19:06.300Z,87.46
2022-10-05T03:21:57.274Z,88.05
2022-10-05T03:24:51.330Z,88.01
2022-10-05T03:27:44.781Z,87.63
2022-10-05T03:30:32.851Z,87.75
2022-10-05T03:33:23.610Z,87.15
2022-10-05T03:36:16.615Z,87.97
2022-10-05T03:39:10.694Z,88.66
2022-10-05T03:41:59.620Z,88.35
2022-10-05T03:44:51.602Z,87.60
2022-10-05T03:47:41.192Z,87.18
2022-10-05T03:50:35.068Z,87.33
2022-10-05T03:53:21.535Z,87.38
2022-10-05T03:56:12.566Z,86.58
2022-10-05T03:59:01.014Z,87.62
2022-10-05T04:01:51.019Z,86.89
2022-10-05T04:04:39.781Z,86.40
2022-10-05T04:07:42.860Z,86.59
2022-10-05T04:10:28.856Z,86.96
2022-10-05T04:13:16.675Z,87.36
2022-10-05T04:16:04.306Z,86.42
2022-10-05T04:18:54.987Z,86.65
2022-10-05T04:21:42.545Z,87.01
2022-10-05T04:24:34.256Z,87.31
2022-10-05T04:27:20.563Z,86.96
2022-10-05T04:30:08.238Z,86.54
2022-10-05T04:32:55.292Z,86.62
2022-10-05T04:36:06.354Z,85.84
2022-10-05T04:39:00.842Z,86.06
2022-10-05T04:41:57.038Z,85.85
2022-10-05T04:44:59.093Z,85.66
2022-10-05T04:48:24.848Z,86.15
2022-10-05T04:51:26.904Z,85.69
2022-10-05T04:54:23.563Z,86.21
2022-10-05T04:57:12.310Z,85.38
2022-10-05T05:00:06.277Z,83.81
2022-10-05T05:03:12.866Z,82.29
2022-10-05T05:06:17.039Z,82.53
2022-10-05T05:09:19.246Z,82.66
2022-10-05T05:12:12.532Z,82.78
2022-10-05T05:15:18.131Z,83.18
2022-10-05T05:18:23.871Z,82.95
2022-10-05T05:21:17.995Z,83.06
2022-10-05T05:24:10.621Z,83.18
2022-10-05T05:27:06.308Z,81.70
2022-10-05T05:30:02.980Z,81.88
2022-10-05T05:32:59.194Z,80.80
2022-10-05T05:36:04.864Z,79.99
2022-10-05T05:38:56.286Z,79.02
2022-10-05T05:41:49.650Z,79.11
2022-10-05T05:44:38.959Z,78.11
2022-10-05T05:47:28.338Z,77.76
2022-10-05T05:50:28.052Z,76.76
2022-10-05T05:53:17.018Z,75.86
2022-10-05T05:56:07.944Z,75.54
2022-10-05T05:58:56.999Z,73.80
2022-10-05T06:01:45.086Z,75.15
2022-10-05T06:04:32.876Z,73.37
2022-10-05T06:07:20.966Z,71.79
2022-10-05T06:10:26.483Z,72.24
2022-10-05T06:13:17.569Z,71.80
2022-10-05T06:16:10.056Z,69.83
2022-10-05T06:18:57.138Z,68.36
2022-10-05T06:21:45.613Z,65.93
2022-10-05T06:24:33.360Z,58.31
2022-10-05T06:27:26.650Z,49.96
2022-10-05T06:30:13.428Z,42.97
2022-10-05T06:33:13.138Z,39.70
2022-10-05T06:36:13.182Z,36.18
2022-10-05T06:39:14.062Z,35.07
2022-10-05T06:42:17.372Z,33.36
2022-10-05T06:45:06.082Z,32.32
2022-10-05T06:47:56.024Z,35.30
2022-10-05T06:50:45.927Z,33.03
2022-10-05T06:53:35.814Z,31.88
2022-10-05T06:56:26.746Z,27.38
2022-10-05T06:59:15.818Z,29.21
2022-10-05T07:02:10.377Z,30.56
2022-10-05T07:05:12.398Z,27.89
2022-10-05T07:08:00.165Z,28.96
2022-10-05T07:10:57.968Z,28.48
2022-10-05T07:13:54.577Z,28.88
2022-10-05T07:16:48.834Z,29.04
2022-10-05T07:19:40.236Z,28.68
2022-10-05T07:22:47.867Z,24.03
2022-10-05T07:25:38.364Z,22.05
2022-10-05T07:28:32.284Z,25.21
2022-10-05T07:31:23.143Z,21.46
2022-10-05T07:34:10.991Z,21.46
2022-10-05T07:37:20.334Z,20.26
2022-10-05T07:40:11.789Z,19.68
2022-10-05T07:43:14.529Z,22.10
2022-10-05T07:46:08.223Z,22.01
2022-10-05T07:49:03.937Z,19.69
2022-10-05T07:51:49.657Z,21.24
2022-10-05T07:54:42.149Z,20.59
2022-10-05T07:57:33.184Z,20.28
2022-10-05T08:00:21.421Z,21.08
2022-10-05T08:03:12.257Z,20.85
2022-10-05T08:05:56.242Z,20.41
2022-10-05T08:08:47.422Z,19.16
2022-10-05T08:11:37.807Z,18.99
2022-10-05T08:14:29.837Z,15.44
2022-10-05T08:17:25.735Z,17.88
2022-10-05T08:20:30.479Z,18.34
2022-10-05T08:23:25.243Z,15.94
2022-10-05T08:26:18.225Z,15.43
2022-10-05T08:29:14.125Z,13.99
2022-10-05T08:32:02.123Z,15.83
2022-10-05T08:34:52.679Z,16.24
2022-10-05T08:37:41.233Z,16.17
2022-10-05T08:41:00.142Z,17.17
2022-10-05T08:44:23.148Z,14.07
2022-10-05T08:47:22.723Z,15.82
2022-10-05T08:50:28.225Z,16.74
2022-10-05T08:53:21.990Z,16.55
2022-10-05T08:56:30.525Z,12.86
2022-10-05T08:59:50.373Z,13.22
2022-10-05T09:02:51.788Z,14.40
2022-10-05T09:06:08.487Z,16.56
2022-10-05T09:09:19.137Z,15.31
2022-10-05T09:12:23.491Z,14.98
2022-10-05T09:15:28.153Z,12.37
2022-10-05T09:18:55.886Z,12.04
2022-10-05T09:21:45.056Z,12.51
2022-10-05T09:24:29.984Z,12.11
2022-10-05T09:27:17.085Z,14.86
2022-10-05T09:30:18.564Z,13.40
2022-10-05T09:33:42.914Z,13.85
2022-10-05T09:36:50.323Z,12.51
2022-10-05T09:40:35.846Z,15.00
2022-10-05T09:44:07.391Z,15.88
2022-10-05T09:47:13.388Z,15.82
2022-10-05T09:50:17.629Z,14.67
2022-10-05T09:53:25.801Z,13.26
2022-10-05T09:56:23.267Z,11.06
2022-10-05T09:59:38.578Z,10.65
2022-10-05T10:02:32.106Z,12.82
2022-10-05T10:05:32.997Z,13.22
2022-10-05T10:08:34.144Z,12.13
2022-10-05T10:11:38.474Z,12.77
2022-10-05T10:14:53.873Z,13.48
2022-10-05T10:17:56.698Z,13.42
2022-10-05T10:20:57.377Z,11.87
2022-10-05T10:24:00.227Z,12.11
2022-10-05T10:27:05.777Z,13.67
2022-10-05T10:30:19.755Z,11.67
2022-10-05T10:33:19.366Z,11.07
2022-10-05T10:36:13.080Z,11.07
2022-10-05T10:39:01.698Z,11.39
2022-10-05T10:42:22.549Z,14.39
2022-10-05T10:45:40.183Z,13.43
2022-10-05T10:48:58.946Z,13.70
2022-10-05T10:52:24.776Z,12.88
2022-10-05T10:55:31.422Z,11.20
2022-10-05T10:58:47.060Z,11.87
2022-10-05T11:01:36.670Z,11.06
2022-10-05T11:04:40.300Z,13.26
2022-10-05T11:07:46.765Z,13.53
2022-10-05T11:10:51.101Z,14.81
2022-10-05T11:14:02.675Z,13.87
2022-10-05T11:17:29.416Z,13.06
2022-10-05T11:20:40.698Z,12.28
2022-10-05T11:23:44.507Z,14.71
2022-10-05T11:26:48.863Z,18.90
2022-10-05T11:29:51.507Z,23.76
2022-10-05T11:33:02.596Z,23.21
2022-10-05T11:36:24.092Z,25.80
2022-10-05T11:39:36.969Z,29.81
2022-10-05T11:42:49.686Z,31.28
2022-10-05T11:45:49.123Z,31.18
2022-10-05T11:49:00.440Z,33.63
2022-10-05T11:51:57.497Z,33.54
2022-10-05T11:55:19.363Z,35.92
2022-10-05T11:58:07.553Z,36.02
2022-10-05T12:00:57.955Z,34.72
2022-10-05T12:03:56.366Z,34.98
2022-10-05T12:06:54.796Z,35.25
2022-10-05T12:10:05.564Z,34.97
2022-10-05T12:13:11.731Z,36.93
2022-10-05T12:15:59.124Z,36.31
2022-10-05T12:18:50.252Z,36.94
2022-10-05T12:21:38.216Z,37.25
2022-10-05T12:24:28.251Z,38.22
2022-10-05T12:27:16.226Z,37.47
2022-10-05T12:30:04.879Z,38.04
2022-10-05T12:33:02.197Z,36.66
2022-10-05T12:35:51.062Z,37.86
2022-10-05T12:38:38.280Z,37.68
2022-10-05T12:41:28.658Z,37.98
2022-10-05T12:44:20.762Z,37.52
2022-10-05T12:47:13.683Z,37.98
2022-10-05T12:50:05.114Z,38.49
2022-10-05T12:53:02.933Z,38.07
2022-10-05T12:55:54.595Z,37.41
2022-10-05T12:58:47.261Z,39.08
2022-10-05T13:01:38.409Z,39.38
2022-10-05T13:04:32.323Z,39.00
2022-10-05T13:07:42.889Z,39.03
2022-10-05T13:10:36.269Z,39.52
2022-10-05T13:13:38.631Z,38.51
2022-10-05T13:16:31.953Z,38.33
2022-10-05T13:19:30.720Z,39.07
2022-10-05T13:22:31.339Z,38.89
2022-10-05T13:25:27.211Z,38.91
2022-10-05T13:28:17.200Z,38.76
2022-10-05T13:31:06.053Z,38.59
2022-10-05T13:33:59.376Z,38.79
2022-10-05T13:36:52.469Z,38.89
2022-10-05T13:39:52.099Z,39.46
2022-10-05T13:42:40.839Z,38.63
2022-10-05T13:45:29.857Z,40.22
2022-10-05T13:48:24.815Z,40.30
2022-10-05T13:51:12.978Z,39.01
2022-10-05T13:54:04.858Z,39.79
2022-10-05T13:56:54.002Z,39.30
2022-10-05T13:59:44.590Z,39.24
2022-10-05T14:02:31.536Z,40.07
2022-10-05T14:05:20.493Z,40.68
2022-10-05T14:08:18.365Z,40.12
2022-10-05T14:11:21.306Z,39.18
2022-10-05T14:14:13.937Z,39.56
2022-10-05T14:16:58.817Z,39.93
2022-10-05T14:19:46.324Z,40.00
2022-10-05T14:22:29.528Z,41.42
2022-10-05T14:25:19.620Z,40.86
2022-10-05T14:28:05.391Z,40.67
2022-10-05T14:30:59.472Z,40.93
2022-10-05T14:33:43.271Z,42.27
2022-10-05T14:36:40.206Z,41.14
2022-10-05T14:39:26.368Z,42.80
2022-10-05T14:42:19.089Z,42.65
2022-10-05T14:45:14.130Z,42.54
2022-10-05T14:48:11.100Z,42.19
2022-10-05T14:50:56.568Z,41.65
2022-10-05T14:53:43.423Z,42.00
2022-10-05T14:56:42.869Z,42.73
2022-10-05T14:59:36.606Z,42.55
2022-10-05T15:02:42.416Z,43.86
2022-10-05T15:05:32.585Z,42.91
2022-10-05T15:08:39.101Z,44.07
2022-10-05T15:11:34.538Z,44.21
2022-10-05T15:14:21.304Z,44.32
2022-10-05T15:17:13.610Z,44.66
2022-10-05T15:20:06.403Z,44.78
2022-10-05T15:22:55.529Z,46.35
2022-10-05T15:25:46.802Z,46.36
2022-10-05T15:28:37.975Z,46.47
2022-10-05T15:31:28.238Z,46.40
2022-10-05T15:34:17.671Z,47.11
2022-10-05T15:37:10.102Z,47.38
2022-10-05T15:39:57.572Z,48.05
2022-10-05T15:42:43.214Z,48.48
2022-10-05T15:45:32.378Z,48.67
2022-10-05T15:48:21.204Z,48.96
2022-10-05T15:51:15.311Z,48.75
2022-10-05T15:54:22.919Z,49.88
2022-10-05T15:57:12.546Z,50.70
2022-10-05T16:00:02.079Z,52.56
2022-10-05T16:02:53.249Z,53.89
2022-10-05T16:06:02.448Z,52.61
2022-10-05T16:08:59.888Z,51.54
2022-10-05T16:12:02.891Z,52.31
2022-10-05T16:14:58.290Z,52.22
2022-10-05T16:17:59.826Z,51.44
2022-10-05T16:20:51.456Z,51.87
2022-10-05T16:23:45.509Z,51.17
2022-10-05T16:26:41.093Z,51.38
2022-10-05T16:29:34.375Z,51.11
2022-10-05T16:32:20.348Z,52.45
2022-10-05T16:35:18.157Z,53.76
2022-10-05T16:38:14.862Z,52.77
2022-10-05T16:41:04.966Z,52.35
2022-10-05T16:43:53.795Z,52.22
2022-10-05T16:46:44.806Z,53.45
2022-10-05T16:49:38.335Z,55.34
2022-10-05T16:52:24.572Z,54.99
2022-10-05T16:55:14.139Z,55.38
2022-10-05T16:57:58.146Z,55.39
2022-10-05T17:00:53.093Z,57.75
2022-10-05T17:03:51.773Z,57.77
2022-10-05T17:07:01.794Z,57.35
2022-10-05T17:09:59.442Z,57.29
2022-10-05T17:12:57.822Z,58.19
2022-10-05T17:16:00.833Z,58.74
2022-10-05T17:19:11.257Z,59.02
2022-10-05T17:22:00.826Z,59.57
2022-10-05T17:24:55.801Z,60.44
2022-10-05T17:27:53.070Z,61.22
2022-10-05T17:30:50.460Z,60.89
2022-10-05T17:33:34.979Z,62.09
2022-10-05T17:36:19.921Z,62.35
2022-10-05T17:39:16.022Z,62.27
2022-10-05T17:42:48.578Z,62.64
2022-10-05T17:45:54.930Z,62.08
2022-10-05T17:49:02.447Z,63.11
2022-10-05T17:52:21.897Z,63.23
2022-10-05T17:55:30.599Z,63.53
2022-10-05T17:58:54.581Z,64.17
2022-10-05T18:01:40.756Z,63.86
2022-10-05T18:04:44.969Z,64.24
2022-10-05T18:07:28.711Z,64.79
2022-10-05T18:10:28.930Z,65.10
2022-10-05T18:13:35.216Z,64.88
2022-10-05T18:16:51.447Z,64.75
2022-10-05T18:19:37.686Z,64.57
2022-10-05T18:22:30.359Z,64.82
2022-10-05T18:25:27.264Z,65.07
2022-10-05T18:28:26.687Z,65.32
2022-10-05T18:31:25.865Z,65.41
2022-10-05T18:34:27.363Z,65.40
2022-10-05T18:37:29.662Z,65.62
2022-10-05T18:40:27.856Z,65.73
2022-10-05T18:43:26.607Z,65.36
2022-10-05T18:46:31.652Z,66.13
2022-10-05T18:49:32.795Z,65.85
2022-10-05T18:52:26.816Z,66.06
2022-10-05T18:55:20.214Z,66.80
2022-10-05T18:58:17.884Z,67.16
2022-10-05T19:01:18.751Z,66.65
2022-10-05T19:04:15.813Z,66.73
2022-10-05T19:07:14.233Z,66.73
2022-10-05T19:10:09.919Z,66.73
2022-10-05T19:13:06.813Z,67.15
2022-10-05T19:15:59.880Z,66.75
2022-10-05T19:18:55.427Z,67.45
2022-10-05T19:21:47.863Z,67.89
2022-10-05T19:24:42.606Z,68.31
2022-10-05T19:27:36.052Z,68.25
2022-10-05T19:30:25.182Z,68.76
2022-10-05T19:33:26.671Z,68.61
2022-10-05T19:36:25.600Z,69.29
2022-10-05T19:39:12.993Z,69.52
2022-10-05T19:42:15.464Z,69.37
2022-10-05T19:45:11.725Z,69.31
2022-10-05T19:48:08.589Z,69.34
2022-10-05T19:50:55.843Z,69.63
2022-10-05T19:53:46.006Z,69.65
2022-10-05T19:56:33.700Z,69.24
2022-10-05T19:59:20.778Z,69.41
2022-10-05T20:02:05.231Z,69.83
2022-10-05T20:04:49.627Z,69.56
2022-10-05T20:07:34.452Z,69.71
2022-10-05T20:10:29.076Z,69.87
2022-10-05T20:13:20.802Z,69.79
2022-10-05T20:16:40.100Z,69.54
2022-10-05T20:19:50.286Z,68.91
2022-10-05T20:22:35.362Z,69.74
2022-10-05T20:25:32.690Z,70.09
2022-10-05T20:28:31.737Z,69.91
2022-10-05T20:31:17.516Z,69.79
2022-10-05T20:34:00.752Z,70.38
2022-10-05T20:36:46.095Z,69.62
2022-10-05T20:39:30.561Z,70.69
2022-10-05T20:42:14.134Z,70.71
2022-10-05T20:44:58.058Z,70.93
2022-10-05T20:47:42.265Z,71.25
2022-10-05T20:50:25.330Z,71.49
2022-10-05T20:53:12.146Z,71.55
2022-10-05T20:56:02.478Z,72.15
2022-10-05T20:58:45.608Z,73.36
2022-10-05T21:01:29.970Z,72.30
2022-10-05T21:04:13.026Z,72.07
2022-10-05T21:06:56.046Z,72.64
2022-10-05T21:09:42.358Z,72.15
2022-10-05T21:12:25.459Z,72.63
2022-10-05T21:15:10.376Z,72.71
2022-10-05T21:17:56.011Z,72.38
2022-10-05T21:20:38.966Z,72.33
2022-10-05T21:23:21.999Z,72.74
2022-10-05T21:26:07.427Z,73.04
2022-10-05T21:28:50.586Z,72.48
2022-10-05T21:31:33.734Z,71.92
2022-10-05T21:34:16.840Z,72.06
2022-10-05T21:36:59.836Z,72.45
2022-10-05T21:39:42.861Z,72.81
2022-10-05T21:42:27.752Z,72.20
2022-10-05T21:45:11.554Z,72.18
2022-10-05T21:47:54.707Z,71.98
2022-10-05T21:50:39.258Z,71.72
2022-10-05T21:53:26.738Z,71.28
2022-10-05T21:56:13.917Z,71.65
2022-10-05T21:58:59.061Z,71.61
2022-10-05T22:01:42.090Z,72.15
2022-10-05T22:04:25.249Z,72.30
2022-10-05T22:07:18.480Z,72.31
2022-10-05T22:10:01.915Z,72.23
2022-10-05T22:12:46.885Z,72.60
2022-10-05T22:15:32.710Z,72.72
2022-10-05T22:18:19.058Z,72.74
2022-10-05T22:21:02.068Z,72.79
2022-10-05T22:23:47.043Z,72.53
2022-10-05T22:26:30.191Z,72.91
2022-10-05T22:29:13.379Z,72.91
2022-10-05T22:31:58.090Z,72.68
2022-10-05T22:34:41.140Z,73.24
2022-10-05T22:37:24.137Z,73.85
2022-10-05T22:40:11.218Z,73.81
2022-10-05T22:42:54.313Z,73.73
2022-10-05T22:45:37.412Z,73.29
2022-10-05T22:48:22.135Z,73.24
2022-10-05T22:51:05.279Z,73.47
2022-10-05T22:53:48.273Z,73.65
2022-10-05T22:56:31.265Z,73.81
2022-10-05T22:59:14.394Z,74.01
2022-10-05T23:01:57.514Z,74.71
2022-10-05T23:04:42.153Z,74.66
2022-10-05T23:07:25.177Z,75.14
2022-10-05T23:10:10.633Z,75.20
2022-10-05T23:13:00.829Z,75.34
2022-10-05T23:15:44.992Z,75.35
2022-10-05T23:18:28.320Z,75.83
2022-10-05T23:21:12.864Z,75.59
2022-10-05T23:23:56.009Z,75.73
2022-10-05T23:26:39.000Z,76.47
2022-10-05T23:29:21.999Z,76.71
2022-10-05T23:32:05.743Z,77.05
2022-10-05T23:34:48.753Z,77.05
2022-10-05T23:37:33.641Z,77.08
2022-10-05T23:40:16.716Z,76.96
2022-10-05T23:43:00.929Z,77.41
2022-10-05T23:45:45.434Z,77.84
2022-10-05T23:48:29.731Z,78.52
2022-10-05T23:51:15.599Z,78.61
2022-10-05T23:54:00.029Z,79.08
2022-10-05T23:56:43.250Z,79.65
2022-10-05T23:59:26.283Z,78.93
